Time;durP1;ratioP1;P1;durP2;ratioP2;P2;SDS_P1;SDS_P2;PMS_P1;PMS_P2;Temp;Humidity;BMP_temperature;BMP_pressure;BME280_temperature;BME280_humidity;BME280_pressure;Samples;Min_cycle;Max_cycle;Signal;HPM_P1;HPM_P2
2023/03/20 00:00:49;;;;;;;32.03;26.67;;;10.50;99.90;;;;;;4878481;29;20474;-77
2023/03/20 00:03:19;;;;;;;32.00;25.50;;;10.50;99.90;;;;;;4878491;29;20963;-77
2023/03/20 00:05:48;;;;;;;35.93;27.90;;;10.50;99.90;;;;;;4880225;29;20474;-77
2023/03/20 00:08:16;;;;;;;36.63;27.97;;;10.50;99.90;;;;;;4879674;29;20940;-77
2023/03/20 00:10:46;;;;;;;34.33;27.23;;;10.50;99.90;;;;;;4878532;29;21071;-77
2023/03/20 00:13:18;;;;;;;35.57;27.93;;;10.50;99.90;;;;;;4878550;29;20493;-77
2023/03/20 00:15:46;;;;;;;34.73;27.20;;;10.50;99.90;;;;;;4878512;29;20557;-77
2023/03/20 00:18:18;;;;;;;33.50;26.80;;;10.50;99.90;;;;;;4878586;29;20450;-77
2023/03/20 00:20:49;;;;;;;34.67;27.83;;;10.50;99.90;;;;;;4880268;29;20466;-77
2023/03/20 00:23:17;;;;;;;31.90;26.83;;;10.50;99.90;;;;;;4878422;29;20446;-77
2023/03/20 00:25:46;;;;;;;36.83;27.70;;;10.50;99.90;;;;;;4879915;29;20447;-77
2023/03/20 00:28:37;;;;;;;37.13;28.50;;;10.50;99.90;;;;;;4878339;29;20465;-77
2023/03/20 00:31:14;;;;;;;35.47;28.10;;;10.50;99.90;;;;;;4882313;29;20466;-77
2023/03/20 00:33:42;;;;;;;36.20;28.67;;;10.50;99.90;;;;;;4882062;29;20442;-77
2023/03/20 00:36:11;;;;;;;32.87;27.23;;;10.50;99.90;;;;;;4881851;29;20458;-77
2023/03/20 00:38:40;;;;;;;35.27;29.30;;;10.50;99.90;;;;;;4881834;29;20533;-77
2023/03/20 00:41:21;;;;;;;39.20;27.77;;;10.50;99.90;;;;;;4881716;29;20473;-77
2023/03/20 00:43:52;;;;;;;34.47;27.80;;;10.50;99.90;;;;;;4882959;29;20466;-77
2023/03/20 00:46:20;;;;;;;33.67;27.70;;;10.40;99.90;;;;;;4881881;29;20462;-77
2023/03/20 00:48:49;;;;;;;34.60;28.20;;;10.50;99.90;;;;;;4881826;29;20878;-77
2023/03/20 00:51:19;;;;;;;33.50;28.10;;;10.50;99.90;;;;;;4881421;29;20473;-77
2023/03/20 00:53:47;;;;;;;32.20;27.10;;;10.40;99.90;;;;;;4883299;29;20438;-77
2023/03/20 00:56:32;;;;;;;34.90;26.17;;;10.40;99.90;;;;;;4881923;29;20445;-77
2023/03/20 00:59:02;;;;;;;31.03;24.70;;;10.40;99.90;;;;;;4881548;29;20521;-78
2023/03/20 01:01:31;;;;;;;31.27;24.73;;;10.40;99.90;;;;;;4881437;29;20473;-77
2023/03/20 01:04:00;;;;;;;26.40;22.23;;;10.40;99.90;;;;;;4881393;29;20462;-77
2023/03/20 01:06:30;;;;;;;27.80;22.83;;;10.40;99.90;;;;;;4881425;29;20482;-77
2023/03/20 01:08:58;;;;;;;29.13;23.37;;;10.40;99.90;;;;;;4881395;29;20457;-77
2023/03/20 01:11:27;;;;;;;27.60;21.40;;;10.40;99.90;;;;;;4881452;29;20581;-77
2023/03/20 01:13:56;;;;;;;27.57;21.20;;;10.40;99.90;;;;;;4881260;29;20460;-77
2023/03/20 01:16:26;;;;;;;23.23;19.00;;;10.30;99.90;;;;;;4881224;29;20985;-77
2023/03/20 01:18:55;;;;;;;22.33;17.43;;;10.30;99.90;;;;;;4881185;29;20457;-77
2023/03/20 01:21:24;;;;;;;20.53;17.10;;;10.30;99.90;;;;;;4881269;29;20498;-77
2023/03/20 01:23:54;;;;;;;19.77;16.63;;;10.30;99.90;;;;;;4881096;29;20461;-77
2023/03/20 01:26:30;;;;;;;19.30;14.87;;;10.20;99.90;;;;;;4881232;29;20979;-77
2023/03/20 01:28:58;;;;;;;15.83;13.40;;;10.20;99.90;;;;;;4881138;29;20442;-77
2023/03/20 01:31:28;;;;;;;17.47;14.27;;;10.20;99.90;;;;;;4881049;29;20525;-77
2023/03/20 01:33:57;;;;;;;14.60;13.07;;;10.20;99.90;;;;;;4880931;29;20549;-77
2023/03/20 01:36:25;;;;;;;13.90;12.23;;;10.10;99.90;;;;;;4882240;29;20458;-77
2023/03/20 01:38:57;;;;;;;13.47;11.90;;;10.10;99.90;;;;;;4880864;29;20556;-77
2023/03/20 01:41:27;;;;;;;11.80;10.57;;;10.10;99.90;;;;;;4880759;29;20474;-77
2023/03/20 01:43:55;;;;;;;13.00;10.63;;;10.10;99.90;;;;;;4880886;29;20462;-77
2023/03/20 01:46:27;;;;;;;14.03;10.20;;;10.10;99.90;;;;;;4881365;29;20466;-77
2023/03/20 01:49:08;;;;;;;12.83;11.33;;;10.10;99.90;;;;;;4882106;29;20465;-77
2023/03/20 01:51:36;;;;;;;12.23;10.43;;;10.00;99.90;;;;;;4880619;29;20497;-77
2023/03/20 01:54:17;;;;;;;12.60;11.30;;;10.00;99.90;;;;;;4880736;29;20514;-78
2023/03/20 01:57:00;;;;;;;13.63;10.97;;;10.00;99.90;;;;;;4880830;29;20510;-77
2023/03/20 01:59:32;;;;;;;12.40;10.70;;;9.90;99.90;;;;;;4880489;29;20507;-77
2023/03/20 02:02:01;;;;;;;15.40;11.93;;;9.90;99.90;;;;;;4880705;29;20462;-77
2023/03/20 02:04:33;;;;;;;13.20;10.97;;;9.90;99.90;;;;;;4880383;29;20454;-77
2023/03/20 02:07:13;;;;;;;11.97;10.07;;;9.80;99.90;;;;;;4880500;29;20461;-77
2023/03/20 02:09:49;;;;;;;12.27;10.50;;;9.80;99.90;;;;;;4880500;29;20492;-77
2023/03/20 02:12:24;;;;;;;10.93;9.83;;;9.80;99.90;;;;;;4880324;29;20446;-77
2023/03/20 02:14:52;;;;;;;11.87;9.67;;;9.80;99.90;;;;;;4880235;29;20504;-77
2023/03/20 02:17:31;;;;;;;13.57;10.97;;;9.80;99.90;;;;;;4880576;29;20824;-77
2023/03/20 02:20:16;;;;;;;11.40;10.20;;;9.80;99.90;;;;;;4880775;29;20833;-77
2023/03/20 02:23:26;;;;;;;12.27;10.40;;;9.70;99.90;;;;;;4880097;29;20450;-77
2023/03/20 02:26:31;;;;;;;12.20;10.20;;;9.70;99.90;;;;;;4880167;29;20479;-77
2023/03/20 02:29:27;;;;;;;11.80;9.93;;;9.70;99.90;;;;;;4879943;29;20461;-77
2023/03/20 02:32:32;;;;;;;11.47;9.47;;;9.70;99.90;;;;;;4841687;29;20490;-77
2023/03/20 02:35:42;;;;;;;9.67;8.67;;;9.70;99.90;;;;;;4852703;29;20557;-77
2023/03/20 02:38:29;;;;;;;10.27;8.80;;;9.70;99.90;;;;;;4879887;29;20494;-77
2023/03/20 02:41:05;;;;;;;10.63;9.03;;;9.60;99.90;;;;;;4880511;29;21039;-77
2023/03/20 02:43:43;;;;;;;7.40;6.07;;;9.70;99.90;;;;;;4880000;29;20458;-77
2023/03/20 02:46:19;;;;;;;9.00;7.47;;;9.60;99.90;;;;;;4879840;29;20446;-77
2023/03/20 02:48:54;;;;;;;10.10;7.80;;;9.60;99.90;;;;;;4879748;29;20480;-77
2023/03/20 02:51:27;;;;;;;8.87;7.83;;;9.70;99.90;;;;;;4878911;29;20559;-77
2023/03/20 02:54:02;;;;;;;10.40;8.30;;;9.60;99.90;;;;;;4879477;29;20438;-77
2023/03/20 02:56:37;;;;;;;9.33;8.10;;;9.70;99.90;;;;;;4879588;29;20469;-77
2023/03/20 02:59:16;;;;;;;9.80;8.60;;;9.70;99.90;;;;;;4879565;29;20462;-77
2023/03/20 03:01:51;;;;;;;9.90;8.37;;;9.70;99.90;;;;;;4879389;29;20526;-77
2023/03/20 03:04:25;;;;;;;9.67;8.67;;;9.70;99.90;;;;;;4879426;29;20824;-77
2023/03/20 03:06:57;;;;;;;10.37;9.10;;;9.60;99.90;;;;;;4879354;29;20541;-77
2023/03/20 03:09:31;;;;;;;12.17;9.60;;;9.60;99.90;;;;;;4879184;29;20925;-77
2023/03/20 03:12:04;;;;;;;11.13;9.43;;;9.60;99.90;;;;;;4879154;29;20557;-77
2023/03/20 03:14:37;;;;;;;11.50;9.60;;;9.60;99.90;;;;;;4879127;29;20435;-77
2023/03/20 03:17:12;;;;;;;12.47;10.47;;;9.60;99.90;;;;;;4879334;29;20498;-77
2023/03/20 03:19:47;;;;;;;11.27;10.17;;;9.60;99.90;;;;;;4879441;29;20932;-77
2023/03/20 03:22:17;;;;;;;11.00;9.57;;;9.60;99.90;;;;;;4879407;29;20454;-77
2023/03/20 03:24:48;;;;;;;11.60;9.60;;;9.60;99.90;;;;;;4879030;29;20960;-77
2023/03/20 03:27:20;;;;;;;11.30;10.07;;;9.60;99.90;;;;;;4879030;29;20529;-77
2023/03/20 03:29:54;;;;;;;10.93;9.30;;;9.60;99.90;;;;;;4878800;29;20861;-77
2023/03/20 03:32:27;;;;;;;12.00;10.23;;;9.60;99.90;;;;;;4880319;29;20939;-77
2023/03/20 03:34:56;;;;;;;11.40;10.20;;;9.50;99.90;;;;;;4879378;29;20959;-77
2023/03/20 03:37:43;;;;;;;12.40;11.10;;;9.50;99.90;;;;;;4878791;29;20450;-77
2023/03/20 03:40:21;;;;;;;14.50;11.30;;;9.50;99.90;;;;;;4893782;29;20478;-77
2023/03/20 03:42:56;;;;;;;12.90;11.60;;;9.50;99.90;;;;;;4878654;29;20456;-77
2023/03/20 03:45:30;;;;;;;12.60;11.30;;;9.50;99.90;;;;;;4878762;29;20456;-77
2023/03/20 03:48:02;;;;;;;14.13;12.63;;;9.50;99.90;;;;;;4878663;29;20446;-77
2023/03/20 03:50:35;;;;;;;13.93;12.43;;;9.50;99.90;;;;;;4879128;29;20474;-77
2023/03/20 03:53:10;;;;;;;12.60;11.10;;;9.50;99.90;;;;;;4878683;29;20453;-77
2023/03/20 03:55:43;;;;;;;15.10;12.83;;;9.50;99.90;;;;;;4878577;29;20461;-77
2023/03/20 03:58:17;;;;;;;13.47;12.07;;;9.50;99.90;;;;;;4878689;29;20438;-77
2023/03/20 04:00:49;;;;;;;13.60;11.70;;;9.50;99.90;;;;;;4878393;29;20478;-77
2023/03/20 04:03:19;;;;;;;14.83;13.33;;;9.40;99.90;;;;;;4879839;29;20453;-77
2023/03/20 04:05:48;;;;;;;13.93;11.63;;;9.40;99.90;;;;;;4879694;29;20430;-76
2023/03/20 04:08:16;;;;;;;17.70;13.47;;;9.50;99.90;;;;;;4878431;29;20457;-77
2023/03/20 04:10:46;;;;;;;14.10;12.60;;;9.40;99.90;;;;;;4879383;29;20568;-77
2023/03/20 04:13:15;;;;;;;14.63;12.77;;;9.40;99.90;;;;;;4878328;29;20952;-77
2023/03/20 04:15:44;;;;;;;14.60;11.87;;;9.40;99.90;;;;;;4878577;29;20454;-77
2023/03/20 04:18:15;;;;;;;15.43;13.47;;;9.40;99.90;;;;;;4878261;29;20831;-77
2023/03/20 04:20:45;;;;;;;14.77;12.10;;;9.40;99.90;;;;;;4878267;29;20478;-77
2023/03/20 04:23:13;;;;;;;16.17;13.53;;;9.40;99.90;;;;;;4878353;29;20510;-77
2023/03/20 04:25:42;;;;;;;14.77;12.97;;;9.40;99.90;;;;;;4878201;29;20459;-77
2023/03/20 04:28:15;;;;;;;13.93;12.27;;;9.40;99.90;;;;;;4878423;29;21043;-77
2023/03/20 04:31:12;;;;;;;14.13;12.57;;;9.40;99.90;;;;;;4845115;29;20483;-77
2023/03/20 04:34:19;;;;;;;14.40;12.90;;;9.40;99.90;;;;;;4840912;29;20542;-77
2023/03/20 04:37:07;;;;;;;15.53;13.30;;;9.40;99.90;;;;;;4825731;29;20452;-77
2023/03/20 04:39:54;;;;;;;14.43;12.57;;;9.40;99.90;;;;;;4870210;29;20481;-77
2023/03/20 04:42:22;;;;;;;16.07;14.20;;;9.40;99.90;;;;;;4878068;29;20469;-77
2023/03/20 04:44:56;;;;;;;14.57;12.90;;;9.40;99.90;;;;;;4878100;29;20450;-77
2023/03/20 04:47:25;;;;;;;16.00;13.13;;;9.40;99.90;;;;;;4878135;29;20541;-77
2023/03/20 04:49:53;;;;;;;14.63;13.00;;;9.30;99.90;;;;;;4877978;29;20573;-77
2023/03/20 04:52:22;;;;;;;14.73;13.10;;;9.30;99.90;;;;;;4878056;29;20518;-77
2023/03/20 04:54:50;;;;;;;14.77;13.17;;;9.30;99.90;;;;;;4878165;29;20454;-77
2023/03/20 04:57:19;;;;;;;17.53;14.63;;;9.30;99.90;;;;;;4878298;29;20460;-77
2023/03/20 04:59:47;;;;;;;15.03;13.30;;;9.30;99.90;;;;;;4878270;29;20474;-77
2023/03/20 05:02:17;;;;;;;15.83;14.10;;;9.30;99.90;;;;;;4878316;29;20450;-77
2023/03/20 05:04:46;;;;;;;15.47;13.10;;;9.30;99.90;;;;;;4877988;29;20457;-77
2023/03/20 05:07:14;;;;;;;15.10;13.30;;;9.30;99.90;;;;;;4877944;29;20461;-77
2023/03/20 05:10:06;;;;;;;14.47;12.97;;;9.30;99.90;;;;;;4877998;29;20477;-77
2023/03/20 05:12:44;;;;;;;16.30;13.60;;;9.30;99.90;;;;;;4878257;29;20538;-77
2023/03/20 05:15:31;;;;;;;14.83;12.67;;;9.30;99.90;;;;;;4880808;29;20449;-77
2023/03/20 05:18:24;;;;;;;14.50;12.97;;;9.30;99.90;;;;;;4882310;29;20477;-77
2023/03/20 05:21:06;;;;;;;17.30;14.27;;;9.40;99.90;;;;;;4880950;29;20482;-77
2023/03/20 05:23:52;;;;;;;15.90;13.77;;;9.30;99.90;;;;;;4883115;29;20881;-77
2023/03/20 05:26:41;;;;;;;15.60;13.90;;;9.40;99.90;;;;;;4881305;29;20469;-77
2023/03/20 05:29:44;;;;;;;16.33;13.83;;;9.40;99.90;;;;;;4864527;29;20450;-77
2023/03/20 05:32:43;;;;;;;15.70;13.37;;;9.40;99.90;;;;;;4881079;29;20800;-77
2023/03/20 05:35:28;;;;;;;16.50;14.23;;;9.40;99.90;;;;;;4882652;29;20863;-77
2023/03/20 05:38:06;;;;;;;16.77;14.07;;;9.40;99.90;;;;;;4880921;29;20493;-77
2023/03/20 05:40:49;;;;;;;15.20;13.53;;;9.40;99.90;;;;;;4882691;29;20461;-78
2023/03/20 05:43:28;;;;;;;16.97;13.67;;;9.40;99.90;;;;;;4881025;29;20815;-77
2023/03/20 05:46:22;;;;;;;16.40;13.47;;;9.40;99.90;;;;;;4860167;29;20846;-77
2023/03/20 05:49:07;;;;;;;15.50;13.47;;;9.30;99.90;;;;;;4880718;29;21011;-76
2023/03/20 05:51:54;;;;;;;16.77;13.70;;;9.30;99.90;;;;;;4881892;29;20485;-77
2023/03/20 05:54:37;;;;;;;15.20;12.80;;;9.30;99.90;;;;;;4880602;29;20874;-77
2023/03/20 05:57:18;;;;;;;16.03;13.93;;;9.30;99.90;;;;;;4880561;29;20548;-77
2023/03/20 05:59:52;;;;;;;17.20;13.00;;;9.30;99.90;;;;;;4882159;29;20472;-78
2023/03/20 06:02:39;;;;;;;18.97;14.23;;;9.30;99.90;;;;;;4882137;29;20433;-78
2023/03/20 06:05:27;;;;;;;15.77;13.17;;;9.30;99.90;;;;;;4881451;29;20514;-78
2023/03/20 06:07:56;;;;;;;16.53;13.70;;;9.30;99.90;;;;;;4880453;29;20477;-78
2023/03/20 06:10:26;;;;;;;15.03;13.10;;;9.40;99.90;;;;;;4880198;29;20478;-78
2023/03/20 06:12:55;;;;;;;16.20;13.70;;;9.40;99.90;;;;;;4880299;29;20851;-78
2023/03/20 06:15:25;;;;;;;16.17;12.67;;;9.40;99.90;;;;;;4880240;29;20450;-78
2023/03/20 06:18:01;;;;;;;15.63;13.10;;;9.40;99.90;;;;;;4880551;29;20461;-78
2023/03/20 06:20:29;;;;;;;14.63;12.03;;;9.40;99.90;;;;;;4880105;29;20976;-78
2023/03/20 06:22:59;;;;;;;14.43;12.37;;;9.40;99.90;;;;;;4880074;29;20501;-78
2023/03/20 06:25:27;;;;;;;15.83;13.73;;;9.40;99.90;;;;;;4880074;29;20545;-78
2023/03/20 06:27:56;;;;;;;15.30;13.27;;;9.40;99.90;;;;;;4878993;29;20453;-78
2023/03/20 06:30:24;;;;;;;14.20;12.73;;;9.40;99.90;;;;;;4879971;29;20478;-78
2023/03/20 06:32:54;;;;;;;16.87;13.27;;;9.30;99.90;;;;;;4880142;29;20988;-78
2023/03/20 06:35:30;;;;;;;14.87;12.97;;;9.30;99.90;;;;;;4880173;29;20542;-78
2023/03/20 06:38:00;;;;;;;16.53;14.23;;;9.30;99.90;;;;;;4879755;29;20454;-78
2023/03/20 06:40:28;;;;;;;16.43;14.10;;;9.30;99.90;;;;;;4881990;29;20466;-78
2023/03/20 06:42:57;;;;;;;14.97;13.23;;;9.40;99.90;;;;;;4879945;29;20502;-77
2023/03/20 06:45:34;;;;;;;15.03;13.33;;;9.40;99.90;;;;;;4879741;29;20461;-77
2023/03/20 06:48:08;;;;;;;16.30;13.90;;;9.40;99.90;;;;;;4879705;29;20468;-77
2023/03/20 06:50:36;;;;;;;15.03;13.00;;;9.40;99.90;;;;;;4879325;29;20478;-77
2023/03/20 06:53:07;;;;;;;15.00;13.27;;;9.40;99.90;;;;;;4880063;29;20556;-77
2023/03/20 06:55:47;;;;;;;17.13;13.90;;;9.40;99.90;;;;;;4879530;29;20454;-78
2023/03/20 06:58:16;;;;;;;17.30;13.53;;;9.40;99.90;;;;;;4879633;29;20462;-77
2023/03/20 07:00:49;;;;;;;19.47;14.60;;;9.40;99.90;;;;;;4879573;29;20579;-77
2023/03/20 07:03:17;;;;;;;15.67;14.10;;;9.40;99.90;;;;;;4879361;29;20446;-77
2023/03/20 07:05:48;;;;;;;16.80;14.20;;;9.40;99.90;;;;;;4879326;29;20873;-77
2023/03/20 07:08:19;;;;;;;14.80;13.17;;;9.40;99.90;;;;;;4879158;29;20470;-77
2023/03/20 07:10:50;;;;;;;17.83;14.03;;;9.50;99.90;;;;;;4879221;29;20514;-76
2023/03/20 07:13:19;;;;;;;15.37;13.13;;;9.50;99.90;;;;;;4879097;29;20474;-77
2023/03/20 07:15:48;;;;;;;15.10;13.50;;;9.50;99.90;;;;;;4879231;29;20470;-78
2023/03/20 07:18:36;;;;;;;15.00;13.50;;;9.50;99.90;;;;;;4879884;29;20469;-77
2023/03/20 07:21:06;;;;;;;16.90;12.80;;;9.50;99.90;;;;;;4879041;29;20474;-78
2023/03/20 07:23:36;;;;;;;14.37;12.87;;;9.50;99.90;;;;;;4879490;29;20457;-78
2023/03/20 07:26:05;;;;;;;14.40;12.90;;;9.50;99.90;;;;;;4878932;29;20458;-78
2023/03/20 07:28:34;;;;;;;14.87;13.37;;;9.50;99.90;;;;;;4878974;29;20911;-78
2023/03/20 07:31:19;;;;;;;13.30;11.60;;;9.50;99.90;;;;;;4879053;29;20995;-78
2023/03/20 07:33:51;;;;;;;14.90;12.57;;;9.50;99.90;;;;;;4879094;29;20843;-78
2023/03/20 07:36:20;;;;;;;17.27;12.50;;;9.50;99.90;;;;;;4878711;29;20465;-78
2023/03/20 07:38:50;;;;;;;15.87;12.57;;;9.60;99.90;;;;;;4878578;29;20462;-78
2023/03/20 07:41:19;;;;;;;14.10;12.50;;;9.60;99.90;;;;;;4878638;29;20485;-78
2023/03/20 07:43:58;;;;;;;12.97;11.03;;;9.60;99.90;;;;;;4878728;29;20448;-78
2023/03/20 07:46:45;;;;;;;13.13;11.07;;;9.60;99.90;;;;;;4878813;29;20454;-78
2023/03/20 07:49:17;;;;;;;16.97;12.80;;;9.60;99.90;;;;;;4878631;29;20458;-78
2023/03/20 07:51:46;;;;;;;14.07;11.70;;;9.60;99.90;;;;;;4878450;29;20580;-78
2023/03/20 07:54:15;;;;;;;13.00;11.60;;;9.60;99.90;;;;;;4878482;29;20831;-78
2023/03/20 07:56:44;;;;;;;13.03;11.80;;;9.60;99.90;;;;;;4878558;29;20543;-79
2023/03/20 07:59:12;;;;;;;14.27;11.80;;;9.70;99.90;;;;;;4878809;29;20454;-78
2023/03/20 08:01:41;;;;;;;13.17;11.77;;;9.60;99.90;;;;;;4878675;29;20474;-77
2023/03/20 08:04:09;;;;;;;13.27;11.87;;;9.70;99.90;;;;;;4879801;29;20507;-78
2023/03/20 08:06:38;;;;;;;16.60;11.13;;;9.70;99.90;;;;;;4878408;29;20454;-77
2023/03/20 08:09:07;;;;;;;13.00;10.50;;;9.70;99.90;;;;;;4878355;29;20521;-78
2023/03/20 08:11:37;;;;;;;12.93;11.60;;;9.70;99.90;;;;;;4878297;29;20485;-78
2023/03/20 08:14:05;;;;;;;15.80;12.20;;;9.80;99.90;;;;;;4878349;29;20478;-77
2023/03/20 08:16:33;;;;;;;14.70;11.30;;;9.80;99.90;;;;;;4878275;29;20511;-78
2023/03/20 08:19:02;;;;;;;15.00;11.20;;;9.80;99.90;;;;;;4880143;29;20946;-78
2023/03/20 08:21:31;;;;;;;15.33;11.90;;;9.80;99.90;;;;;;4878236;29;20482;-78
2023/03/20 08:24:00;;;;;;;12.93;11.60;;;9.90;99.90;;;;;;4878411;29;20459;-78
2023/03/20 08:26:28;;;;;;;15.03;11.20;;;9.90;99.90;;;;;;4878326;29;20453;-78
2023/03/20 08:28:58;;;;;;;12.60;11.03;;;9.90;99.90;;;;;;4879747;29;20454;-78
2023/03/20 08:31:26;;;;;;;13.90;11.00;;;9.90;99.90;;;;;;4878074;29;20470;-78
2023/03/20 08:33:55;;;;;;;12.43;11.07;;;9.90;99.90;;;;;;4878280;29;20486;-78
2023/03/20 08:36:24;;;;;;;13.50;11.00;;;10.00;99.90;;;;;;4878153;29;20507;-78
2023/03/20 08:38:52;;;;;;;13.80;11.47;;;9.90;99.90;;;;;;4878256;29;20455;-78
2023/03/20 08:41:21;;;;;;;15.93;11.77;;;10.00;99.90;;;;;;4879505;29;20469;-78
2023/03/20 08:43:49;;;;;;;12.73;10.20;;;10.00;99.90;;;;;;4879470;29;20454;-78
2023/03/20 08:46:18;;;;;;;13.03;10.10;;;10.10;99.90;;;;;;4878235;29;20819;-78
2023/03/20 08:48:46;;;;;;;12.37;11.07;;;10.10;99.90;;;;;;4879364;29;20829;-78
2023/03/20 08:51:15;;;;;;;11.33;9.73;;;10.10;99.90;;;;;;4880620;29;20493;-78
2023/03/20 08:53:43;;;;;;;12.20;10.90;;;10.10;99.90;;;;;;4881547;29;20478;-78
2023/03/20 08:56:11;;;;;;;11.70;10.43;;;10.10;99.90;;;;;;4881591;29;20454;-78
2023/03/20 08:58:39;;;;;;;11.93;10.13;;;10.10;99.90;;;;;;4881611;29;20458;-78
2023/03/20 09:01:09;;;;;;;11.40;10.20;;;10.10;99.90;;;;;;4881324;29;20470;-78
2023/03/20 09:03:39;;;;;;;12.13;10.93;;;10.20;99.90;;;;;;4881703;29;20486;-78
2023/03/20 09:06:09;;;;;;;12.00;10.30;;;10.20;99.90;;;;;;4881347;29;20464;-78
2023/03/20 09:08:37;;;;;;;12.40;9.60;;;10.30;99.90;;;;;;4881387;29;20469;-78
2023/03/20 09:11:06;;;;;;;13.63;10.63;;;10.30;99.90;;;;;;4881538;29;20510;-78
2023/03/20 09:13:35;;;;;;;10.60;9.60;;;10.30;99.90;;;;;;4881414;29;20489;-77
2023/03/20 09:16:03;;;;;;;12.50;10.63;;;10.30;99.90;;;;;;4881381;29;20518;-78
2023/03/20 09:18:32;;;;;;;39.23;23.10;;;10.40;99.90;;;;;;4881472;29;20972;-78
2023/03/20 09:21:02;;;;;;;82.50;37.97;;;10.30;99.90;;;;;;4882825;29;20462;-78
2023/03/20 09:23:30;;;;;;;16.00;13.97;;;10.40;99.90;;;;;;4882358;29;20450;-78
2023/03/20 09:25:59;;;;;;;13.60;11.17;;;10.40;99.90;;;;;;4881275;29;20498;-78
2023/03/20 09:28:27;;;;;;;12.03;10.43;;;10.40;99.90;;;;;;4881408;29;20454;-78
2023/03/20 09:30:56;;;;;;;12.47;11.17;;;10.30;99.90;;;;;;4881259;29;20478;-78
2023/03/20 09:33:24;;;;;;;11.77;9.80;;;10.30;99.90;;;;;;4881239;29;20482;-79
2023/03/20 09:35:53;;;;;;;11.43;9.87;;;10.20;99.90;;;;;;4881212;29;20456;-78
2023/03/20 09:38:23;;;;;;;11.50;9.40;;;10.30;99.90;;;;;;4881030;29;20462;-78
2023/03/20 09:40:54;;;;;;;11.60;9.93;;;10.30;99.90;;;;;;4880900;29;20568;-78
2023/03/20 09:43:37;;;;;;;10.00;8.13;;;10.30;99.90;;;;;;4880829;29;20451;-78
2023/03/20 09:46:18;;;;;;;10.13;8.97;;;10.40;99.90;;;;;;4880853;29;20956;-77
2023/03/20 09:48:53;;;;;;;13.10;8.30;;;10.40;99.90;;;;;;4881253;29;20454;-77
2023/03/20 09:51:31;;;;;;;12.00;9.03;;;10.40;99.90;;;;;;4880624;29;20492;-77
2023/03/20 09:54:06;;;;;;;10.40;8.10;;;10.50;99.90;;;;;;4880629;29;20486;-77
2023/03/20 09:56:34;;;;;;;11.50;8.93;;;10.50;99.90;;;;;;4880513;29;20959;-77
2023/03/20 09:59:06;;;;;;;10.47;8.10;;;10.60;99.90;;;;;;4880662;29;20462;-78
2023/03/20 10:01:44;;;;;;;10.43;8.37;;;10.60;99.90;;;;;;4880088;29;20478;-78
2023/03/20 10:04:13;;;;;;;10.47;7.60;;;10.60;99.90;;;;;;4880467;29;20438;-78
2023/03/20 10:06:41;;;;;;;10.13;7.63;;;10.60;99.90;;;;;;4881619;29;20816;-78
2023/03/20 10:09:20;;;;;;;10.43;7.70;;;10.60;99.90;;;;;;4880194;29;20462;-77
2023/03/20 10:12:07;;;;;;;10.07;7.07;;;10.70;99.90;;;;;;4880756;29;20481;-78
2023/03/20 10:14:45;;;;;;;9.00;6.80;;;10.70;99.90;;;;;;4880300;29;20497;-78
2023/03/20 10:17:44;;;;;;;8.67;6.60;;;10.60;99.90;;;;;;4880340;29;20515;-78
2023/03/20 10:20:14;;;;;;;10.53;6.67;;;10.70;99.90;;;;;;4880036;29;20554;-78
2023/03/20 10:22:45;;;;;;;9.30;6.30;;;10.70;99.90;;;;;;4880028;29;20901;-78
2023/03/20 10:25:31;;;;;;;8.40;6.20;;;10.70;99.90;;;;;;4880296;29;20466;-78
2023/03/20 10:28:00;;;;;;;10.53;6.67;;;10.80;99.90;;;;;;4879940;29;21035;-78
2023/03/20 10:30:48;;;;;;;9.90;6.20;;;10.80;99.90;;;;;;4880062;29;20481;-78
2023/03/20 10:33:31;;;;;;;12.10;6.23;;;10.90;99.90;;;;;;4881064;29;20944;-78
2023/03/20 10:36:14;;;;;;;8.90;6.40;;;10.90;99.90;;;;;;4879742;29;20995;-78
2023/03/20 10:38:47;;;;;;;10.57;6.40;;;10.90;99.90;;;;;;4879741;29;20963;-78
2023/03/20 10:41:19;;;;;;;7.20;6.13;;;11.00;99.90;;;;;;4879863;29;20482;-78
2023/03/20 10:43:50;;;;;;;9.47;6.47;;;11.00;99.90;;;;;;4879711;29;20477;-77
2023/03/20 10:46:22;;;;;;;11.30;7.00;;;11.10;99.90;;;;;;4879907;29;20454;-78
2023/03/20 10:48:57;;;;;;;8.87;7.20;;;11.10;99.90;;;;;;4879621;29;20446;-78
2023/03/20 10:51:36;;;;;;;7.90;6.47;;;11.10;99.90;;;;;;4879544;29;20499;-78
2023/03/20 10:54:08;;;;;;;11.57;6.10;;;11.20;99.90;;;;;;4879710;29;20979;-78
2023/03/20 10:56:44;;;;;;;7.20;5.93;;;11.20;99.90;;;;;;4879536;29;20450;-78
2023/03/20 10:59:20;;;;;;;9.70;6.43;;;11.30;99.90;;;;;;4880979;29;20434;-77
2023/03/20 11:01:48;;;;;;;9.30;6.60;;;11.40;99.90;;;;;;4879492;29;20488;-78
2023/03/20 11:04:16;;;;;;;10.30;6.10;;;11.40;99.90;;;;;;4880548;29;20500;-78
2023/03/20 11:06:52;;;;;;;8.70;6.13;;;11.50;99.90;;;;;;4880501;29;20482;-78
2023/03/20 11:09:22;;;;;;;9.37;6.20;;;11.50;99.90;;;;;;4879353;29;20450;-78
2023/03/20 11:11:57;;;;;;;10.00;6.27;;;11.60;99.90;;;;;;4879400;29;20482;-78
2023/03/20 11:14:27;;;;;;;7.93;6.00;;;11.70;99.90;;;;;;4878660;29;20462;-77
2023/03/20 11:16:56;;;;;;;8.23;6.17;;;11.70;99.90;;;;;;4879112;29;20457;-78
2023/03/20 11:19:24;;;;;;;9.00;6.80;;;11.70;99.90;;;;;;4879022;29;20460;-77
2023/03/20 11:21:55;;;;;;;7.63;6.10;;;11.80;99.90;;;;;;4879150;29;20572;-78
2023/03/20 11:24:28;;;;;;;9.37;6.23;;;11.80;99.90;;;;;;4878922;29;20453;-77
2023/03/20 11:27:07;;;;;;;8.13;5.80;;;11.90;99.90;;;;;;4879556;29;20455;-78
2023/03/20 11:29:36;;;;;;;8.43;6.03;;;11.90;99.90;;;;;;4880647;29;20434;-78
2023/03/20 11:32:07;;;;;;;18.50;7.17;;;11.90;99.90;;;;;;4878988;29;20446;-78
2023/03/20 11:34:39;;;;;;;12.90;7.73;;;11.90;99.90;;;;;;4878799;29;20457;-77
2023/03/20 11:37:21;;;;;;;8.57;6.03;;;12.00;99.90;;;;;;4878941;29;20450;-78
2023/03/20 11:40:00;;;;;;;9.90;6.90;;;12.00;99.90;;;;;;4878709;29;20485;-78
2023/03/20 11:42:32;;;;;;;7.77;5.87;;;12.00;99.90;;;;;;4880210;29;20438;-77
2023/03/20 11:45:03;;;;;;;10.73;6.77;;;12.10;99.90;;;;;;4880242;29;20478;-78
2023/03/20 11:47:34;;;;;;;12.13;7.53;;;12.10;99.90;;;;;;4878812;29;20507;-78
2023/03/20 11:50:06;;;;;;;10.53;7.43;;;12.10;99.90;;;;;;4878854;29;20841;-78
2023/03/20 11:52:37;;;;;;;9.13;6.47;;;12.10;99.90;;;;;;4879703;29;20513;-78
2023/03/20 11:55:12;;;;;;;10.30;6.90;;;12.10;99.90;;;;;;4878513;29;20565;-78
2023/03/20 11:57:43;;;;;;;9.33;6.40;;;12.10;99.90;;;;;;4878502;29;20450;-78
2023/03/20 12:00:19;;;;;;;9.87;7.37;;;12.10;99.90;;;;;;4880010;29;20995;-77
2023/03/20 12:02:48;;;;;;;9.20;6.20;;;12.10;99.90;;;;;;4880882;29;20446;-77
2023/03/20 12:05:28;;;;;;;10.87;7.10;;;12.10;99.90;;;;;;4880730;29;20948;-78
2023/03/20 12:08:01;;;;;;;11.87;7.57;;;12.10;99.90;;;;;;4881075;29;20462;-77
2023/03/20 12:10:35;;;;;;;12.30;7.70;;;12.20;99.90;;;;;;4882828;29;20535;-78
2023/03/20 12:13:11;;;;;;;9.53;7.63;;;12.20;99.90;;;;;;4880756;29;20536;-78
2023/03/20 12:15:44;;;;;;;8.93;6.63;;;12.30;99.90;;;;;;4880856;29;20904;-78
2023/03/20 12:18:17;;;;;;;8.00;6.50;;;12.30;99.90;;;;;;4881074;29;20533;-78
2023/03/20 12:20:54;;;;;;;11.13;7.37;;;12.30;99.90;;;;;;4879714;29;21012;-78
2023/03/20 12:23:29;;;;;;;11.10;7.40;;;12.30;99.90;;;;;;4878253;29;20442;-78
2023/03/20 12:26:06;;;;;;;10.13;7.60;;;12.30;99.90;;;;;;4882098;29;20454;-78
2023/03/20 12:28:41;;;;;;;10.23;7.10;;;12.30;99.90;;;;;;4881974;29;20453;-78
2023/03/20 12:31:21;;;;;;;10.57;7.50;;;12.30;99.90;;;;;;4881980;29;20512;-78
2023/03/20 12:33:55;;;;;;;10.10;7.50;;;12.30;99.90;;;;;;4882168;29;20537;-77
2023/03/20 12:36:30;;;;;;;12.53;7.80;;;12.30;99.90;;;;;;4882623;29;20470;-78
2023/03/20 12:38:58;;;;;;;8.40;7.30;;;12.30;99.90;;;;;;4883082;29;20442;-78
2023/03/20 12:41:30;;;;;;;10.63;7.90;;;12.30;99.90;;;;;;4882572;29;20474;-77
2023/03/20 12:44:16;;;;;;;9.67;8.60;;;12.30;99.90;;;;;;4881945;29;20454;-78
2023/03/20 12:46:51;;;;;;;10.33;7.77;;;12.30;99.90;;;;;;4881627;29;20449;-78
2023/03/20 12:49:33;;;;;;;12.40;8.30;;;12.30;99.90;;;;;;4881665;29;20449;-77
2023/03/20 12:52:10;;;;;;;10.70;8.47;;;12.30;99.90;;;;;;4881615;29;20465;-78
2023/03/20 12:54:52;;;;;;;11.97;8.00;;;12.30;99.90;;;;;;4881521;29;20794;-78
2023/03/20 12:57:28;;;;;;;8.80;7.03;;;12.30;99.90;;;;;;4881449;29;20997;-77
2023/03/20 13:00:18;;;;;;;10.20;7.87;;;12.30;99.90;;;;;;4882627;29;20971;-78
2023/03/20 13:02:57;;;;;;;13.33;8.97;;;12.30;99.90;;;;;;4881385;29;20450;-78
2023/03/20 13:05:33;;;;;;;11.73;8.20;;;12.30;99.90;;;;;;4881319;29;20454;-78
2023/03/20 13:08:19;;;;;;;10.37;8.40;;;12.30;99.90;;;;;;4881338;29;20944;-78
2023/03/20 13:10:56;;;;;;;11.70;7.73;;;12.30;99.90;;;;;;4882408;29;20465;-80